Time;durP1;ratioP1;P1;durP2;ratioP2;P2;SDS_P1;SDS_P2;PMS_P1;PMS_P2;Temp;Humidity;BMP_temperature;BMP_pressure;BME280_temperature;BME280_humidity;BME280_pressure;Samples;Min_cycle;Max_cycle;Signal;HPM_P1;HPM_P2
2022/02/17 00:00:42;;;;;;;4.00;1.13;;;10.10;99.90;;;;;;2586840;54;20037;31
2022/02/17 00:03:20;;;;;;;2.72;1.10;;;10.20;99.90;;;;;;2586735;54;20032;31
2022/02/17 00:05:52;;;;;;;5.70;1.83;;;10.10;99.90;;;;;;2586658;54;20661;31
2022/02/17 00:08:28;;;;;;;4.10;1.50;;;10.00;99.90;;;;;;2604870;46;20126;31
2022/02/17 00:11:01;;;;;;;4.60;1.53;;;10.00;99.90;;;;;;2586570;54;21177;31
2022/02/17 00:13:36;;;;;;;6.25;1.30;;;9.90;99.90;;;;;;2586637;54;21056;31
2022/02/17 00:16:11;;;;;;;3.97;1.13;;;9.90;99.90;;;;;;2605313;46;20037;31
2022/02/17 00:18:48;;;;;;;3.60;1.35;;;9.90;99.90;;;;;;2604843;46;20495;31
2022/02/17 00:21:20;;;;;;;4.25;1.40;;;9.80;99.90;;;;;;2604789;46;20644;31
2022/02/17 00:23:54;;;;;;;2.97;1.00;;;9.80;99.90;;;;;;2586654;54;20054;31
2022/02/17 00:26:25;;;;;;;5.95;4.80;;;9.70;99.90;;;;;;2586386;54;20910;31
2022/02/17 00:29:00;;;;;;;16.83;13.95;;;9.70;99.90;;;;;;2586514;54;20851;31
2022/02/17 00:31:38;;;;;;;38.60;30.33;;;9.70;99.90;;;;;;2586743;54;20879;31
2022/02/17 00:34:13;;;;;;;37.95;30.80;;;9.60;99.90;;;;;;2586698;54;21057;31
2022/02/17 00:36:45;;;;;;;38.08;32.05;;;9.60;99.90;;;;;;2586357;54;20085;31
2022/02/17 00:39:21;;;;;;;33.67;28.90;;;9.60;99.90;;;;;;2586683;54;20894;31
2022/02/17 00:41:56;;;;;;;33.53;27.17;;;9.60;99.90;;;;;;2586562;54;20804;31
2022/02/17 00:44:28;;;;;;;19.02;14.38;;;9.50;99.90;;;;;;2586578;54;21171;31
2022/02/17 00:47:10;;;;;;;8.85;7.20;;;9.60;99.90;;;;;;2586509;54;20027;31
2022/02/17 00:49:43;;;;;;;6.38;4.85;;;9.50;99.90;;;;;;2586591;54;20258;31
2022/02/17 00:52:17;;;;;;;3.00;2.30;;;9.50;99.90;;;;;;2605054;46;20894;31
2022/02/17 00:54:51;;;;;;;2.05;0.95;;;9.60;99.90;;;;;;2586560;54;20853;31
2022/02/17 00:57:24;;;;;;;1.17;0.43;;;9.60;99.90;;;;;;2586533;54;20027;31
2022/02/17 00:59:56;;;;;;;2.13;0.70;;;9.50;99.90;;;;;;2586526;54;20046;31
2022/02/17 01:02:33;;;;;;;1.70;0.40;;;9.70;99.90;;;;;;2586228;54;20927;31
2022/02/17 01:05:08;;;;;;;1.15;0.50;;;9.70;99.90;;;;;;2586451;54;20850;31
2022/02/17 01:07:41;;;;;;;1.42;0.40;;;9.70;99.90;;;;;;2586394;54;20869;31
2022/02/17 01:10:13;;;;;;;0.25;0.20;;;9.80;99.90;;;;;;2586181;54;20899;31
2022/02/17 01:12:47;;;;;;;0.70;0.30;;;9.80;99.90;;;;;;2586570;54;20113;31
2022/02/17 01:15:20;;;;;;;1.27;0.30;;;9.90;99.90;;;;;;2586387;54;20861;31
2022/02/17 01:17:56;;;;;;;1.23;0.30;;;9.90;99.90;;;;;;2586417;54;20026;31
2022/02/17 01:20:31;;;;;;;0.85;0.40;;;9.90;99.90;;;;;;2586205;54;20386;31
2022/02/17 01:23:04;;;;;;;0.80;0.20;;;9.90;99.90;;;;;;2604585;46;20876;31
2022/02/17 01:25:36;;;;;;;1.07;0.27;;;10.00;99.90;;;;;;2586294;54;20031;31
2022/02/17 01:28:10;;;;;;;1.10;0.50;;;10.00;99.90;;;;;;2586404;54;20868;31
2022/02/17 01:30:44;;;;;;;1.27;0.40;;;9.90;99.90;;;;;;2586523;54;20669;31
2022/02/17 01:33:22;;;;;;;0.65;0.20;;;9.90;99.90;;;;;;2586435;54;20772;31
2022/02/17 01:36:06;;;;;;;1.75;0.30;;;9.90;99.90;;;;;;2586452;54;20966;31
2022/02/17 01:38:41;;;;;;;0.40;0.20;;;9.90;99.90;;;;;;2586315;54;20105;31
2022/02/17 01:41:14;;;;;;;0.50;0.20;;;9.90;99.90;;;;;;2586128;54;20269;31
2022/02/17 01:43:50;;;;;;;1.88;0.88;;;9.90;99.90;;;;;;2586344;54;20754;31
2022/02/17 01:46:35;;;;;;;0.50;0.30;;;9.90;99.90;;;;;;2586267;54;20860;31
2022/02/17 01:49:13;;;;;;;1.17;0.50;;;9.90;99.90;;;;;;2586352;54;20744;31
2022/02/17 01:51:47;;;;;;;1.57;0.80;;;9.90;99.90;;;;;;2586163;54;20026;31
2022/02/17 01:54:19;;;;;;;1.20;0.50;;;9.90;99.90;;;;;;2591707;46;20026;31
2022/02/17 01:56:52;;;;;;;1.60;1.00;;;9.90;99.90;;;;;;2586290;54;21021;31
2022/02/17 01:59:27;;;;;;;1.73;1.00;;;9.90;99.90;;;;;;2586368;54;20874;31
2022/02/17 02:02:03;;;;;;;1.80;0.50;;;10.00;99.90;;;;;;2586211;54;20036;31
2022/02/17 02:04:41;;;;;;;0.52;0.30;;;10.00;99.90;;;;;;2586313;54;20034;31
2022/02/17 02:07:13;;;;;;;;;;;10.00;99.90;;;;;;2586376;54;20859;31
2022/02/17 02:09:47;;;;;;;0.70;0.30;;;10.00;99.90;;;;;;2586268;54;20636;31
2022/02/17 02:12:21;;;;;;;0.60;0.22;;;10.00;99.90;;;;;;2586292;54;20868;31
2022/02/17 02:14:58;;;;;;;1.07;0.10;;;10.00;99.90;;;;;;2586193;54;19935;31
2022/02/17 02:17:35;;;;;;;0.50;0.28;;;10.00;99.90;;;;;;2586244;54;20876;31
2022/02/17 02:20:19;;;;;;;1.00;0.20;;;10.10;99.90;;;;;;2604819;46;20030;31
2022/02/17 02:23:01;;;;;;;0.82;0.30;;;10.10;99.90;;;;;;2586032;54;20356;31
2022/02/17 02:25:34;;;;;;;0.93;0.10;;;10.10;99.90;;;;;;2586114;54;20029;31
2022/02/17 02:28:06;;;;;;;0.20;0.10;;;10.20;99.90;;;;;;2586229;54;20848;31
2022/02/17 02:30:42;;;;;;;0.50;0.20;;;10.20;99.90;;;;;;2586188;54;20837;31
2022/02/17 02:33:17;;;;;;;0.80;0.20;;;10.20;99.90;;;;;;2586075;54;20030;31
2022/02/17 02:35:52;;;;;;;0.95;0.20;;;10.20;99.90;;;;;;2585898;54;20912;31
2022/02/17 02:38:45;;;;;;;0.90;0.20;;;10.20;99.90;;;;;;2586253;54;20887;31
2022/02/17 02:41:18;;;;;;;0.33;0.10;;;10.20;99.90;;;;;;2586263;54;20733;31
2022/02/17 02:43:53;;;;;;;1.30;0.20;;;10.20;99.90;;;;;;2585978;54;20060;31
2022/02/17 02:46:26;;;;;;;1.48;0.20;;;10.20;99.90;;;;;;2585142;54;20933;31
2022/02/17 02:49:00;;;;;;;0.70;0.30;;;10.30;99.90;;;;;;2585690;54;20947;31
2022/02/17 02:51:38;;;;;;;0.60;0.20;;;10.40;99.90;;;;;;2585948;54;20835;31
2022/02/17 02:54:10;;;;;;;0.28;0.20;;;10.40;99.90;;;;;;2586114;54;20030;31
2022/02/17 02:56:44;;;;;;;0.70;0.10;;;10.50;99.90;;;;;;2586189;54;20857;31
2022/02/17 02:59:17;;;;;;;7.70;0.23;;;10.50;99.90;;;;;;2585901;54;20859;31
2022/02/17 03:01:49;;;;;;;0.17;0.10;;;10.60;99.90;;;;;;2586025;54;20490;31
2022/02/17 03:04:24;;;;;;;0.50;0.10;;;10.70;99.90;;;;;;2586018;54;20037;31
2022/02/17 03:07:02;;;;;;;0.43;0.30;;;10.70;99.90;;;;;;2586108;54;20869;31
2022/02/17 03:09:33;;;;;;;0.45;0.17;;;10.80;99.90;;;;;;2585775;54;20242;31
2022/02/17 03:12:07;;;;;;;0.87;0.20;;;10.80;99.90;;;;;;2585951;54;20129;31
2022/02/17 03:14:40;;;;;;;0.70;0.20;;;10.80;99.90;;;;;;2586179;54;20026;31
2022/02/17 03:17:14;;;;;;;0.85;0.15;;;10.90;99.90;;;;;;2586110;54;20757;31
2022/02/17 03:19:48;;;;;;;0.55;0.30;;;10.90;99.90;;;;;;2585790;54;20301;31
2022/02/17 03:22:25;;;;;;;1.10;0.30;;;10.90;99.90;;;;;;2585979;54;20057;31
2022/02/17 03:25:02;;;;;;;0.30;0.10;;;11.00;99.90;;;;;;2586033;54;20935;31
2022/02/17 03:27:34;;;;;;;0.50;0.20;;;11.00;99.90;;;;;;2585889;54;20022;31
2022/02/17 03:30:29;;;;;;;0.60;0.20;;;10.90;99.90;;;;;;2585970;54;20149;31
2022/02/17 03:33:10;;;;;;;0.43;0.20;;;11.00;99.90;;;;;;2585932;54;20581;31
2022/02/17 03:35:43;;;;;;;0.20;0.10;;;11.00;99.90;;;;;;2605493;46;20905;31
2022/02/17 03:38:20;;;;;;;0.63;0.27;;;11.00;99.90;;;;;;2605601;46;20038;31
2022/02/17 03:40:58;;;;;;;1.30;0.10;;;11.10;99.90;;;;;;2586704;54;20933;31
2022/02/17 03:43:37;;;;;;;0.20;0.10;;;11.10;99.90;;;;;;2604988;46;20053;31
2022/02/17 03:46:11;;;;;;;0.83;0.10;;;11.20;99.90;;;;;;2586617;54;20046;31
2022/02/17 03:48:48;;;;;;;0.52;0.20;;;11.30;99.90;;;;;;2605659;46;20903;31
2022/02/17 03:51:25;;;;;;;2.33;0.30;;;11.30;99.90;;;;;;2586466;54;20735;31
2022/02/17 03:54:03;;;;;;;0.65;0.30;;;11.40;99.90;;;;;;2586736;54;20064;31
2022/02/17 03:56:37;;;;;;;1.92;0.10;;;11.50;99.90;;;;;;2586708;54;20469;31
2022/02/17 03:59:27;;;;;;;0.40;0.20;;;11.60;99.90;;;;;;2586775;54;20048;31
2022/02/17 04:02:04;;;;;;;0.93;0.20;;;11.60;99.90;;;;;;2605409;46;20888;31
2022/02/17 04:04:37;;;;;;;1.20;0.20;;;11.70;99.90;;;;;;2605184;46;20047;31
2022/02/17 04:07:14;;;;;;;0.45;0.10;;;11.70;99.90;;;;;;2586690;54;20073;31
2022/02/17 04:09:51;;;;;;;4.55;0.57;;;11.70;99.90;;;;;;2586467;54;20759;31
2022/02/17 04:12:27;;;;;;;3.25;0.40;;;11.10;99.90;;;;;;2586489;54;20052;31
2022/02/17 04:14:59;;;;;;;2.97;0.40;;;10.50;99.90;;;;;;2586491;54;20032;31
2022/02/17 04:17:31;;;;;;;1.27;0.22;;;10.00;99.90;;;;;;2586551;54;21277;31
2022/02/17 04:20:24;;;;;;;2.50;0.30;;;9.40;99.90;;;;;;2586491;54;20866;31
2022/02/17 04:23:07;;;;;;;3.28;0.47;;;8.90;99.90;;;;;;2586566;54;19969;31
2022/02/17 04:25:46;;;;;;;2.00;0.35;;;8.70;99.90;;;;;;2605136;46;20046;31
2022/02/17 04:28:35;;;;;;;2.00;0.30;;;8.30;99.90;;;;;;2586558;54;20997;31
2022/02/17 04:31:11;;;;;;;4.38;0.40;;;8.20;99.90;;;;;;2586248;54;21233;31
2022/02/17 04:33:47;;;;;;;3.05;0.20;;;8.00;99.90;;;;;;2586487;54;20026;31
2022/02/17 04:36:26;;;;;;;3.47;0.55;;;7.90;99.90;;;;;;2586584;54;20076;31
2022/02/17 04:39:00;;;;;;;4.60;0.52;;;7.80;99.90;;;;;;2586591;54;20886;31
2022/02/17 04:44:31;;;;;;;4.65;0.55;;;7.70;99.90;;;;;;2586515;54;20656;31
2022/02/17 04:47:04;;;;;;;5.05;0.30;;;7.70;99.90;;;;;;2586370;54;20249;31
2022/02/17 04:49:36;;;;;;;1.50;0.20;;;7.70;99.90;;;;;;2586516;54;20766;31
2022/02/17 04:52:10;;;;;;;3.40;0.70;;;7.70;99.90;;;;;;2586551;54;20336;31
2022/02/17 04:54:43;;;;;;;1.58;0.28;;;7.70;99.90;;;;;;2586491;54;20161;31
2022/02/17 04:57:24;;;;;;;3.38;0.60;;;7.70;99.90;;;;;;2586548;54;20153;31
2022/02/17 04:59:58;;;;;;;2.97;0.40;;;7.80;99.90;;;;;;2595686;46;20022;31
2022/02/17 05:02:32;;;;;;;3.38;0.47;;;7.80;99.90;;;;;;2586424;54;20031;31
2022/02/17 05:05:30;;;;;;;3.08;0.40;;;7.80;99.90;;;;;;2586161;54;20912;31
2022/02/17 05:08:06;;;;;;;3.05;0.43;;;7.80;99.90;;;;;;2586414;54;20034;31
2022/02/17 05:10:43;;;;;;;2.50;0.40;;;7.80;99.90;;;;;;2586434;54;20027;31
2022/02/17 05:13:22;;;;;;;2.90;0.40;;;7.80;99.90;;;;;;2586539;54;20796;31
2022/02/17 05:15:56;;;;;;;4.18;0.70;;;7.80;99.90;;;;;;2586378;54;20026;31
2022/02/17 05:18:31;;;;;;;3.10;0.70;;;7.80;99.90;;;;;;2586340;54;20034;31
2022/02/17 05:21:07;;;;;;;2.00;0.40;;;7.80;99.90;;;;;;2586469;54;21079;31
2022/02/17 05:24:04;;;;;;;;;;;7.80;99.90;;;;;;2586691;54;20780;31
2022/02/17 05:27:14;;;;;;;5.10;0.50;;;7.80;99.90;;;;;;2586051;54;19939;31
2022/02/17 05:30:00;;;;;;;6.00;0.75;;;7.80;99.90;;;;;;2586333;54;20026;31
2022/02/17 05:32:51;;;;;;;4.30;0.70;;;7.70;99.90;;;;;;2604670;46;20461;31
2022/02/17 05:35:47;;;;;;;5.45;0.50;;;7.70;99.90;;;;;;2586025;54;20058;31
2022/02/17 05:38:47;;;;;;;3.45;0.55;;;7.70;99.90;;;;;;2586197;54;20068;31
2022/02/17 05:41:41;;;;;;;4.13;0.63;;;7.70;99.90;;;;;;2586420;54;21116;31
2022/02/17 05:44:14;;;;;;;7.43;0.83;;;7.70;99.90;;;;;;2586494;54;20027;31
2022/02/17 05:46:51;;;;;;;2.65;0.65;;;7.70;99.90;;;;;;2586251;54;20105;31
2022/02/17 05:49:25;;;;;;;3.72;0.80;;;7.70;99.90;;;;;;2604699;46;20080;31
2022/02/17 05:52:00;;;;;;;2.60;0.80;;;7.70;99.90;;;;;;2586434;54;20152;31
2022/02/17 05:54:33;;;;;;;2.90;0.70;;;7.70;99.90;;;;;;2604671;46;20770;31
2022/02/17 05:57:07;;;;;;;4.40;1.23;;;7.70;99.90;;;;;;2586170;54;20305;31
2022/02/17 05:59:47;;;;;;;1.63;0.60;;;7.70;99.90;;;;;;2605094;46;20038;31
2022/02/17 06:02:30;;;;;;;6.28;0.80;;;7.70;99.90;;;;;;2586238;54;20076;31
2022/02/17 06:05:05;;;;;;;4.32;0.73;;;7.70;99.90;;;;;;2586270;54;20857;31
2022/02/17 06:07:39;;;;;;;3.53;1.50;;;7.70;99.90;;;;;;2604875;46;20907;31
2022/02/17 06:10:11;;;;;;;3.72;0.85;;;7.70;99.90;;;;;;2586538;54;20819;31
2022/02/17 06:12:44;;;;;;;2.05;0.50;;;7.70;99.90;;;;;;2604585;46;20834;31
2022/02/17 06:15:20;;;;;;;3.30;0.90;;;7.70;99.90;;;;;;2586264;54;20026;31
2022/02/17 06:17:55;;;;;;;4.85;0.90;;;7.70;99.90;;;;;;2586196;54;20054;31
2022/02/17 06:20:27;;;;;;;2.90;0.70;;;7.70;99.90;;;;;;2586194;54;20022;31
2022/02/17 06:22:59;;;;;;;3.10;0.95;;;7.70;99.90;;;;;;2586179;54;20868;31
2022/02/17 06:25:33;;;;;;;2.30;0.60;;;7.70;99.90;;;;;;2586290;54;21183;31
2022/02/17 06:28:06;;;;;;;2.90;0.80;;;7.80;99.90;;;;;;2586191;54;20854;31
2022/02/17 06:30:43;;;;;;;2.25;0.68;;;7.80;99.90;;;;;;2586128;54;20032;31
2022/02/17 06:33:20;;;;;;;2.88;0.70;;;7.80;99.90;;;;;;2586084;54;20157;31
2022/02/17 06:35:53;;;;;;;2.70;0.60;;;7.80;99.90;;;;;;2586196;54;20049;31
2022/02/17 06:38:26;;;;;;;1.60;0.35;;;7.80;99.90;;;;;;2586104;54;20214;31
2022/02/17 06:41:00;;;;;;;2.72;0.52;;;7.80;99.90;;;;;;2586122;54;20882;31
2022/02/17 06:43:36;;;;;;;4.13;0.50;;;7.70;99.90;;;;;;2586306;54;20026;31
2022/02/17 06:46:10;;;;;;;2.55;0.60;;;7.70;99.90;;;;;;2586083;54;20046;31
2022/02/17 06:48:45;;;;;;;3.40;0.70;;;7.60;99.90;;;;;;2586187;54;20053;31
2022/02/17 06:51:19;;;;;;;1.80;0.70;;;7.50;99.90;;;;;;2586124;54;20085;31
2022/02/17 06:53:53;;;;;;;3.70;0.75;;;7.50;99.90;;;;;;2587258;47;20881;31
2022/02/17 06:56:29;;;;;;;3.20;1.10;;;7.50;99.90;;;;;;2586136;54;20049;31
2022/02/17 06:59:03;;;;;;;6.10;0.90;;;7.40;99.90;;;;;;2585825;54;20834;31
2022/02/17 07:01:38;;;;;;;5.18;1.02;;;7.40;99.90;;;;;;2585953;54;20461;31
2022/02/17 07:04:14;;;;;;;3.13;0.50;;;7.40;99.90;;;;;;2586300;54;20026;31
2022/02/17 07:06:49;;;;;;;3.80;0.70;;;7.40;99.90;;;;;;2585658;47;20077;31
2022/02/17 07:09:22;;;;;;;2.70;0.40;;;7.40;99.90;;;;;;2586858;54;20946;31
2022/02/17 07:11:55;;;;;;;3.10;0.65;;;7.40;99.90;;;;;;2586866;54;20027;31
2022/02/17 07:14:29;;;;;;;2.67;0.57;;;7.40;99.90;;;;;;2586753;54;20155;31
2022/02/17 07:17:03;;;;;;;6.17;0.70;;;7.30;99.90;;;;;;2586933;54;20029;31
2022/02/17 07:19:38;;;;;;;3.75;0.80;;;7.40;99.90;;;;;;2586980;54;20100;31
2022/02/17 07:22:10;;;;;;;3.37;0.80;;;7.40;99.90;;;;;;2605041;46;20030;31
2022/02/17 07:24:44;;;;;;;3.58;0.95;;;7.40;99.90;;;;;;2586652;54;20023;31
2022/02/17 07:27:18;;;;;;;5.65;0.90;;;7.40;99.90;;;;;;2586910;54;20887;31
2022/02/17 07:29:55;;;;;;;4.40;0.65;;;7.50;99.90;;;;;;2587063;54;20852;31
2022/02/17 07:32:27;;;;;;;4.40;0.90;;;7.50;99.90;;;;;;2586574;54;19938;31
2022/02/17 07:35:01;;;;;;;7.25;0.60;;;7.50;99.90;;;;;;2585883;54;20073;31
2022/02/17 07:37:34;;;;;;;4.55;0.95;;;7.50;99.90;;;;;;2586777;54;20872;31
2022/02/17 07:40:15;;;;;;;3.03;0.90;;;7.60;99.90;;;;;;2755392;31;20420;31
2022/02/17 07:42:48;;;;;;;4.50;1.05;;;7.60;99.90;;;;;;2586726;54;20876;31
2022/02/17 07:45:23;;;;;;;5.22;1.20;;;7.70;99.90;;;;;;2586746;54;20034;31
2022/02/17 07:47:56;;;;;;;5.10;0.75;;;8.00;99.90;;;;;;2586697;54;20086;31
2022/02/17 07:50:33;;;;;;;6.05;0.90;;;8.10;99.90;;;;;;2586676;54;20898;31
2022/02/17 07:53:07;;;;;;;4.20;0.80;;;8.20;99.90;;;;;;2586740;54;20849;31
2022/02/17 07:55:40;;;;;;;4.70;0.60;;;8.20;99.90;;;;;;2586640;54;20145;31
2022/02/17 07:58:15;;;;;;;6.57;1.20;;;8.20;99.90;;;;;;2586489;54;20046;31
2022/02/17 08:00:50;;;;;;;2.70;0.90;;;8.20;99.90;;;;;;2586668;54;20962;31
2022/02/17 08:03:25;;;;;;;3.58;0.70;;;8.10;99.90;;;;;;2586565;54;20053;31
2022/02/17 08:06:02;;;;;;;4.50;0.57;;;8.10;99.90;;;;;;2586847;54;20756;31
2022/02/17 08:08:57;;;;;;;6.55;0.80;;;8.10;99.90;;;;;;2586624;54;20070;31
2022/02/17 08:11:29;;;;;;;3.13;0.73;;;8.20;99.90;;;;;;2586611;54;20950;31
2022/02/17 08:14:02;;;;;;;1.97;0.60;;;8.50;99.90;;;;;;2586464;54;20027;31
2022/02/17 08:16:35;;;;;;;4.60;0.93;;;8.60;99.90;;;;;;2586662;54;21792;31
2022/02/17 08:19:08;;;;;;;5.90;1.30;;;8.60;99.90;;;;;;2586562;54;20245;31
2022/02/17 08:21:52;;;;;;;3.10;1.05;;;8.70;99.90;;;;;;2586698;54;20826;31
2022/02/17 08:24:26;;;;;;;4.57;1.13;;;8.70;99.90;;;;;;2586712;54;20759;31
2022/02/17 08:26:59;;;;;;;3.67;0.80;;;8.70;99.90;;;;;;2586555;54;20053;31
2022/02/17 08:29:32;;;;;;;2.67;0.60;;;8.70;99.90;;;;;;2586960;54;20754;31
2022/02/17 08:32:09;;;;;;;4.95;0.88;;;8.80;99.90;;;;;;2586648;54;20132;31
2022/02/17 08:34:41;;;;;;;4.17;0.90;;;8.80;99.90;;;;;;2586496;54;20162;31
2022/02/17 08:37:18;;;;;;;6.20;0.90;;;8.90;99.90;;;;;;2605314;46;20045;31
2022/02/17 08:39:53;;;;;;;4.63;1.00;;;9.30;99.90;;;;;;2604829;46;20477;31
2022/02/17 08:42:26;;;;;;;6.90;1.52;;;9.60;99.90;;;;;;2586540;54;20081;31
2022/02/17 08:44:58;;;;;;;7.40;1.48;;;9.90;99.90;;;;;;2586316;54;20031;31
2022/02/17 08:47:30;;;;;;;3.40;0.80;;;10.30;99.90;;;;;;2586036;54;20915;31
2022/02/17 08:50:03;;;;;;;2.67;0.73;;;10.70;99.90;;;;;;2586474;54;20034;31
2022/02/17 08:52:38;;;;;;;3.20;0.80;;;10.90;99.90;;;;;;2604857;46;20869;31
2022/02/17 08:55:11;;;;;;;5.73;1.00;;;11.10;99.90;;;;;;2586527;54;20026;31
2022/02/17 08:57:47;;;;;;;5.15;0.80;;;11.50;99.90;;;;;;2586370;54;20129;31
2022/02/17 09:00:19;;;;;;;;;;;11.60;99.90;;;;;;2586521;54;20890;31
2022/02/17 09:02:52;;;;;;;5.28;0.93;;;11.70;99.90;;;;;;2604820;46;19941;31
2022/02/17 09:05:27;;;;;;;2.55;0.80;;;11.90;99.90;;;;;;2586494;54;20042;31
2022/02/17 09:08:02;;;;;;;4.35;0.95;;;12.10;99.90;;;;;;2586593;54;20060;31
2022/02/17 09:10:37;;;;;;;4.65;1.13;;;12.20;99.90;;;;;;2586703;54;20062;31
2022/02/17 09:13:11;;;;;;;3.00;0.70;;;12.40;99.90;;;;;;2586449;54;20035;31
2022/02/17 09:15:43;;;;;;;4.72;0.90;;;12.40;99.90;;;;;;2585953;54;20030;31
2022/02/17 09:18:18;;;;;;;6.90;1.08;;;12.50;99.90;;;;;;2586488;54;20032;31
2022/02/17 09:20:51;;;;;;;3.90;1.20;;;12.50;99.90;;;;;;2586411;54;20752;31
2022/02/17 09:23:29;;;;;;;4.10;0.60;;;12.70;99.90;;;;;;2586534;54;20038;31
2022/02/17 09:26:03;;;;;;;2.80;0.85;;;12.70;99.90;;;;;;2586319;54;20126;31
2022/02/17 09:28:39;;;;;;;7.30;1.50;;;12.80;99.90;;;;;;2586359;54;20053;31
2022/02/17 09:31:34;;;;;;;5.45;1.52;;;12.70;99.90;;;;;;2586148;54;20961;31
2022/02/17 09:34:11;;;;;;;4.60;1.27;;;12.80;99.90;;;;;;2586391;54;20853;31
2022/02/17 09:36:45;;;;;;;4.80;0.70;;;12.90;99.90;;;;;;2604529;46;20697;31
2022/02/17 09:39:22;;;;;;;5.33;1.00;;;12.90;99.90;;;;;;2586085;54;20081;31
2022/02/17 09:41:55;;;;;;;4.07;0.63;;;12.90;99.90;;;;;;2586563;54;20826;31
2022/02/17 09:44:28;;;;;;;4.07;0.80;;;13.00;99.90;;;;;;2586137;54;20349;31
2022/02/17 09:47:03;;;;;;;5.47;1.20;;;13.10;99.90;;;;;;2586564;54;20724;31
2022/02/17 09:49:37;;;;;;;6.70;0.80;;;13.00;99.90;;;;;;2684048;39;20362;31
2022/02/17 09:52:10;;;;;;;3.30;1.05;;;13.00;99.90;;;;;;2586286;54;20073;31
2022/02/17 09:54:51;;;;;;;3.63;0.70;;;13.10;99.90;;;;;;2586188;54;20093;31
2022/02/17 09:57:25;;;;;;;3.15;0.60;;;13.00;99.90;;;;;;2604846;46;20922;31
2022/02/17 09:59:59;;;;;;;6.03;0.82;;;13.00;99.90;;;;;;2586495;54;20144;31
2022/02/17 10:02:54;;;;;;;4.65;1.20;;;12.90;99.90;;;;;;2646929;53;20109;31
2022/02/17 10:05:29;;;;;;;3.15;0.70;;;12.80;99.90;;;;;;2607524;54;20041;31
2022/02/17 10:08:04;;;;;;;3.00;0.80;;;12.70;99.90;;;;;;2607509;54;20137;31
2022/02/17 10:10:42;;;;;;;6.20;1.00;;;12.70;99.90;;;;;;2607572;54;20153;31
2022/02/17 10:13:17;;;;;;;4.70;0.82;;;12.80;99.90;;;;;;2607522;54;20068;31
2022/02/17 10:15:58;;;;;;;5.60;0.50;;;12.70;99.90;;;;;;2607619;54;20060;31
2022/02/17 10:18:41;;;;;;;4.30;0.57;;;12.70;99.90;;;;;;2607714;54;20046;31
2022/02/17 10:21:15;;;;;;;2.75;0.90;;;12.60;99.90;;;;;;2626114;46;20030;31
2022/02/17 10:23:51;;;;;;;2.15;0.55;;;12.60;99.90;;;;;;2626466;46;20878;31
2022/02/17 10:26:27;;;;;;;3.22;0.60;;;12.70;99.90;;;;;;2626526;46;20837;31
2022/02/17 10:29:06;;;;;;;4.53;0.73;;;12.70;99.90;;;;;;2607474;54;20042;31
2022/02/17 10:31:40;;;;;;;4.20;0.70;;;12.90;99.90;;;;;;2607448;54;20788;31
2022/02/17 10:34:21;;;;;;;3.13;0.60;;;12.90;99.90;;;;;;2607454;54;20026;31
2022/02/17 10:37:03;;;;;;;7.20;0.75;;;13.10;99.90;;;;;;2607721;54;20049;31
2022/02/17 10:39:42;;;;;;;3.35;0.68;;;12.90;99.90;;;;;;2625806;46;20076;31
2022/02/17 10:42:16;;;;;;;5.95;0.70;;;12.90;99.90;;;;;;2706488;38;21070;31
2022/02/17 10:44:52;;;;;;;1.77;0.47;;;12.90;99.90;;;;;;2607305;54;20038;31
2022/02/17 10:47:28;;;;;;;4.30;0.50;;;12.90;99.90;;;;;;2607531;54;20598;31
2022/02/17 10:50:05;;;;;;;4.27;0.80;;;12.80;99.90;;;;;;2607562;54;20037;31
2022/02/17 10:52:39;;;;;;;6.15;1.20;;;12.70;99.90;;;;;;2607586;54;20238;31
2022/02/17 10:55:15;;;;;;;4.45;0.75;;;12.70;99.90;;;;;;2607316;54;20928;31
2022/02/17 10:57:51;;;;;;;6.33;1.17;;;12.90;99.90;;;;;;2706155;38;20612;31
2022/02/17 11:00:29;;;;;;;3.90;0.50;;;13.00;99.90;;;;;;2607405;54;21039;31
2022/02/17 11:03:07;;;;;;;5.10;0.60;;;13.10;99.90;;;;;;2607068;54;20022;31
2022/02/17 11:06:03;;;;;;;3.65;1.50;;;13.00;99.90;;;;;;2607340;54;20050;31
2022/02/17 11:08:40;;;;;;;5.22;0.60;;;12.90;99.90;;;;;;2607356;54;20961;31
2022/02/17 11:11:17;;;;;;;4.63;0.93;;;12.90;99.90;;;;;;2612521;46;20022;31
2022/02/17 11:13:53;;;;;;;5.32;0.90;;;12.90;99.90;;;;;;2623237;46;20890;31
2022/02/17 11:16:28;;;;;;;5.72;0.60;;;12.80;99.90;;;;;;2603847;54;20050;31
2022/02/17 11:19:05;;;;;;;3.60;0.70;;;12.80;99.90;;;;;;2603770;54;21412;31
2022/02/17 11:21:43;;;;;;;6.80;0.70;;;12.70;99.90;;;;;;2603729;54;20031;31
2022/02/17 11:24:19;;;;;;;3.78;0.75;;;12.70;99.90;;;;;;2603066;54;20068;31
2022/02/17 11:27:01;;;;;;;5.60;1.15;;;12.60;99.90;;;;;;2615172;39;22283;31
2022/02/17 11:29:36;;;;;;;9.88;0.90;;;12.60;99.90;;;;;;2622437;46;20030;31
2022/02/17 11:32:16;;;;;;;5.67;1.10;;;12.60;99.90;;;;;;2608890;46;20160;31
2022/02/17 11:34:53;;;;;;;4.05;0.85;;;12.40;99.90;;;;;;2603831;54;20248;31
2022/02/17 11:37:50;;;;;;;8.20;1.03;;;12.30;99.90;;;;;;2603696;54;20049;31
2022/02/17 11:40:27;;;;;;;4.28;0.90;;;12.10;99.90;;;;;;2603833;54;20881;31
2022/02/17 11:43:09;;;;;;;3.97;0.57;;;12.00;99.90;;;;;;2602965;54;20831;31
2022/02/17 11:45:47;;;;;;;2.53;1.02;;;11.80;99.90;;;;;;2622063;46;20026;31
2022/02/17 11:48:40;;;;;;;5.80;0.98;;;11.90;99.90;;;;;;2622132;46;20053;31
2022/02/17 11:51:18;;;;;;;3.80;0.70;;;12.00;99.90;;;;;;2773900;31;21119;31
2022/02/17 11:54:15;;;;;;;4.50;1.27;;;12.00;99.90;;;;;;2603999;54;20050;31
2022/02/17 11:56:50;;;;;;;6.35;1.77;;;11.90;99.90;;;;;;2603460;54;20051;31
2022/02/17 11:59:27;;;;;;;7.35;0.70;;;11.90;99.90;;;;;;2621875;46;20030;31
2022/02/17 12:02:02;;;;;;;6.73;1.13;;;11.90;99.90;;;;;;2603501;54;20913;31
2022/02/17 12:05:15;;;;;;;3.60;0.90;;;11.80;99.90;;;;;;2603452;54;20909;31
2022/02/17 12:07:50;;;;;;;6.03;1.02;;;11.70;99.90;;;;;;2603651;54;20165;31
2022/02/17 12:10:33;;;;;;;5.00;0.90;;;11.70;99.90;;;;;;2622037;46;20918;31
2022/02/17 12:13:10;;;;;;;4.07;1.17;;;11.60;99.90;;;;;;2621876;46;20619;31
2022/02/17 12:15:46;;;;;;;5.40;0.90;;;11.60;99.90;;;;;;2603582;54;21378;31
2022/02/17 12:18:20;;;;;;;;;;;11.60;99.90;;;;;;2622116;46;20868;31
2022/02/17 12:21:01;;;;;;;6.65;1.05;;;11.70;99.90;;;;;;2603487;54;20713;31
2022/02/17 12:23:37;;;;;;;4.03;1.00;;;11.70;99.90;;;;;;2603387;54;20931;31
2022/02/17 12:26:39;;;;;;;3.92;0.82;;;11.80;99.90;;;;;;2622117;47;21018;31
2022/02/17 12:29:26;;;;;;;4.95;0.85;;;11.80;99.90;;;;;;2603677;54;20053;31
2022/02/17 12:32:01;;;;;;;5.90;1.10;;;11.90;99.90;;;;;;2603814;54;20085;31
2022/02/17 12:34:37;;;;;;;5.32;0.88;;;12.00;99.90;;;;;;2622027;46;20037;31
2022/02/17 12:37:18;;;;;;;7.50;1.30;;;11.90;99.90;;;;;;2603458;54;20097;31
2022/02/17 12:39:54;;;;;;;4.80;1.02;;;11.70;99.90;;;;;;2603673;54;21227;31
2022/02/17 12:42:31;;;;;;;;;;;11.60;99.90;;;;;;2622224;46;20045;31
2022/02/17 12:45:05;;;;;;;6.68;0.90;;;11.60;99.90;;;;;;2603280;54;20829;31
2022/02/17 12:47:40;;;;;;;7.63;0.65;;;11.60;99.90;;;;;;2603684;54;20774;31
2022/02/17 12:50:15;;;;;;;5.65;0.80;;;11.60;99.90;;;;;;2603523;54;20112;31
2022/02/17 12:52:53;;;;;;;4.50;0.95;;;11.50;99.90;;;;;;2603473;54;20903;31
2022/02/17 12:55:44;;;;;;;6.13;0.85;;;11.50;99.90;;;;;;2791634;31;20600;31
2022/02/17 12:58:32;;;;;;;5.15;1.35;;;11.50;99.90;;;;;;2603624;54;20054;31
2022/02/17 13:01:07;;;;;;;3.20;0.63;;;11.60;99.90;;;;;;2603432;54;20865;31
2022/02/17 13:03:41;;;;;;;2.95;0.80;;;11.50;99.90;;;;;;2603624;54;20034;31
2022/02/17 13:06:22;;;;;;;5.80;1.00;;;11.50;99.90;;;;;;2603490;54;20030;31
2022/02/17 13:08:58;;;;;;;4.78;1.00;;;11.40;99.90;;;;;;2603493;54;20964;31
2022/02/17 13:11:32;;;;;;;2.45;1.00;;;11.30;99.90;;;;;;2603367;54;20033;31
2022/02/17 13:14:11;;;;;;;4.45;1.00;;;11.20;99.90;;;;;;2603368;54;20813;31
2022/02/17 13:16:49;;;;;;;6.07;1.50;;;11.10;99.90;;;;;;2603396;54;20034;31
2022/02/17 13:19:34;;;;;;;4.07;1.00;;;11.00;99.90;;;;;;2603516;54;20900;31
2022/02/17 13:22:40;;;;;;;2.25;0.77;;;11.00;99.90;;;;;;2603659;54;20858;31
2022/02/17 13:25:15;;;;;;;4.57;1.13;;;10.80;99.90;;;;;;2603265;54;20018;31
2022/02/17 13:27:51;;;;;;;5.40;0.80;;;10.80;99.90;;;;;;2603579;54;20058;31
2022/02/17 13:30:34;;;;;;;5.63;0.80;;;10.70;99.90;;;;;;2622194;46;20073;31
2022/02/17 13:33:09;;;;;;;4.45;0.85;;;10.60;99.90;;;;;;2603290;54;20026;31
2022/02/17 13:35:51;;;;;;;7.93;0.70;;;10.60;99.90;;;;;;2603124;54;20896;31
2022/02/17 13:38:30;;;;;;;5.70;0.73;;;10.50;99.90;;;;;;2603300;54;20097;31
2022/02/17 13:41:07;;;;;;;6.88;0.85;;;10.40;99.90;;;;;;2603620;54;20042;31
2022/02/17 13:43:48;;;;;;;5.50;0.70;;;10.50;99.90;;;;;;2602912;54;20861;31
2022/02/17 13:46:26;;;;;;;4.28;0.90;;;10.30;99.90;;;;;;2603313;54;20026;31
2022/02/17 13:49:06;;;;;;;3.70;1.20;;;10.30;99.90;;;;;;2621796;46;20026;31
2022/02/17 13:51:46;;;;;;;6.95;0.90;;;10.30;99.90;;;;;;2603278;54;20128;31
2022/02/17 13:54:21;;;;;;;8.10;0.77;;;10.30;99.90;;;;;;2603204;54;20026;31
2022/02/17 13:57:07;;;;;;;7.20;1.08;;;10.20;99.90;;;;;;2603556;54;20046;31